sensor_id;sensor_type;location;lat;lon;timestamp;P1;durP1;ratioP1;P2;durP2;ratioP2
71366;SDS011;60030;52.274;8.040;2022-07-26T00:00:23;7.18;;;1.85;;
71366;SDS011;60030;52.274;8.040;2022-07-26T00:02:50;3.92;;;1.55;;
71366;SDS011;60030;52.274;8.040;2022-07-26T00:05:17;7.72;;;1.33;;
71366;SDS011;60030;52.274;8.040;2022-07-26T00:07:44;6.30;;;1.30;;
71366;SDS011;60030;52.274;8.040;2022-07-26T00:10:12;6.53;;;1.27;;
71366;SDS011;60030;52.274;8.040;2022-07-26T00:12:39;4.85;;;2.03;;
71366;SDS011;60030;52.274;8.040;2022-07-26T00:15:09;4.75;;;1.60;;
71366;SDS011;60030;52.274;8.040;2022-07-26T00:17:37;3.72;;;1.42;;
71366;SDS011;60030;52.274;8.040;2022-07-26T00:20:04;6.97;;;1.58;;
71366;SDS011;60030;52.274;8.040;2022-07-26T00:22:32;3.30;;;1.60;;
71366;SDS011;60030;52.274;8.040;2022-07-26T00:24:59;8.68;;;2.15;;
71366;SDS011;60030;52.274;8.040;2022-07-26T00:27:26;7.15;;;1.88;;
71366;SDS011;60030;52.274;8.040;2022-07-26T00:29:53;9.05;;;1.63;;
71366;SDS011;60030;52.274;8.040;2022-07-26T00:32:22;6.00;;;1.65;;
71366;SDS011;60030;52.274;8.040;2022-07-26T00:34:49;5.78;;;1.30;;
71366;SDS011;60030;52.274;8.040;2022-07-26T00:37:17;5.57;;;1.50;;
71366;SDS011;60030;52.274;8.040;2022-07-26T00:39:44;4.63;;;1.50;;
71366;SDS011;60030;52.274;8.040;2022-07-26T00:42:11;2.97;;;1.63;;
71366;SDS011;60030;52.274;8.040;2022-07-26T00:44:39;6.90;;;1.48;;
71366;SDS011;60030;52.274;8.040;2022-07-26T00:47:08;8.02;;;1.80;;
71366;SDS011;60030;52.274;8.040;2022-07-26T00:49:37;4.60;;;1.50;;
71366;SDS011;60030;52.274;8.040;2022-07-26T00:52:04;4.03;;;1.65;;
71366;SDS011;60030;52.274;8.040;2022-07-26T00:54:33;3.60;;;1.58;;
71366;SDS011;60030;52.274;8.040;2022-07-26T00:57:01;7.38;;;1.50;;
71366;SDS011;60030;52.274;8.040;2022-07-26T00:59:28;7.72;;;1.70;;
71366;SDS011;60030;52.274;8.040;2022-07-26T01:01:55;5.50;;;1.45;;
71366;SDS011;60030;52.274;8.040;2022-07-26T01:04:22;5.22;;;1.60;;
71366;SDS011;60030;52.274;8.040;2022-07-26T01:06:51;6.95;;;1.65;;
71366;SDS011;60030;52.274;8.040;2022-07-26T01:09:18;6.40;;;2.00;;
71366;SDS011;60030;52.274;8.040;2022-07-26T01:11:46;8.45;;;2.22;;
71366;SDS011;60030;52.274;8.040;2022-07-26T01:14:13;7.78;;;1.85;;
71366;SDS011;60030;52.274;8.040;2022-07-26T01:16:40;5.07;;;1.70;;
71366;SDS011;60030;52.274;8.040;2022-07-26T01:19:08;6.32;;;1.63;;
71366;SDS011;60030;52.274;8.040;2022-07-26T01:21:36;5.07;;;1.73;;
71366;SDS011;60030;52.274;8.040;2022-07-26T01:24:04;6.03;;;1.70;;
71366;SDS011;60030;52.274;8.040;2022-07-26T01:26:32;6.38;;;1.67;;
71366;SDS011;60030;52.274;8.040;2022-07-26T01:28:59;5.95;;;1.70;;
71366;SDS011;60030;52.274;8.040;2022-07-26T01:31:26;6.18;;;1.60;;
71366;SDS011;60030;52.274;8.040;2022-07-26T01:33:53;7.10;;;1.80;;
71366;SDS011;60030;52.274;8.040;2022-07-26T01:36:20;5.55;;;1.48;;
71366;SDS011;60030;52.274;8.040;2022-07-26T01:38:49;9.48;;;1.90;;
71366;SDS011;60030;52.274;8.040;2022-07-26T01:41:16;8.93;;;1.45;;
71366;SDS011;60030;52.274;8.040;2022-07-26T01:43:43;6.82;;;2.13;;
71366;SDS011;60030;52.274;8.040;2022-07-26T01:46:10;5.18;;;1.70;;
71366;SDS011;60030;52.274;8.040;2022-07-26T01:48:38;5.70;;;1.40;;
71366;SDS011;60030;52.274;8.040;2022-07-26T01:51:05;3.40;;;1.60;;
71366;SDS011;60030;52.274;8.040;2022-07-26T01:53:32;4.95;;;1.40;;
71366;SDS011;60030;52.274;8.040;2022-07-26T01:56:01;5.03;;;1.80;;
71366;SDS011;60030;52.274;8.040;2022-07-26T01:58:28;8.70;;;2.20;;
71366;SDS011;60030;52.274;8.040;2022-07-26T02:00:55;9.00;;;1.77;;
71366;SDS011;60030;52.274;8.040;2022-07-26T02:03:26;4.55;;;2.13;;
71366;SDS011;60030;52.274;8.040;2022-07-26T02:05:53;6.13;;;1.67;;
71366;SDS011;60030;52.274;8.040;2022-07-26T02:08:20;4.47;;;1.48;;
71366;SDS011;60030;52.274;8.040;2022-07-26T02:10:47;9.65;;;2.17;;
71366;SDS011;60030;52.274;8.040;2022-07-26T02:13:27;5.25;;;1.83;;
71366;SDS011;60030;52.274;8.040;2022-07-26T02:15:55;4.68;;;1.80;;
71366;SDS011;60030;52.274;8.040;2022-07-26T02:18:24;6.75;;;1.85;;
71366;SDS011;60030;52.274;8.040;2022-07-26T02:20:53;3.90;;;1.70;;
71366;SDS011;60030;52.274;8.040;2022-07-26T02:23:20;7.07;;;1.73;;
71366;SDS011;60030;52.274;8.040;2022-07-26T02:25:48;10.02;;;2.13;;
71366;SDS011;60030;52.274;8.040;2022-07-26T02:28:15;5.88;;;2.03;;
71366;SDS011;60030;52.274;8.040;2022-07-26T02:30:44;4.38;;;1.95;;
71366;SDS011;60030;52.274;8.040;2022-07-26T02:33:11;6.03;;;1.98;;
71366;SDS011;60030;52.274;8.040;2022-07-26T02:35:38;5.93;;;1.80;;
71366;SDS011;60030;52.274;8.040;2022-07-26T02:38:06;8.27;;;2.25;;
71366;SDS011;60030;52.274;8.040;2022-07-26T02:40:36;10.48;;;2.03;;
71366;SDS011;60030;52.274;8.040;2022-07-26T02:43:04;6.78;;;2.20;;
71366;SDS011;60030;52.274;8.040;2022-07-26T02:45:32;5.68;;;2.10;;
71366;SDS011;60030;52.274;8.040;2022-07-26T02:48:01;6.78;;;1.75;;
71366;SDS011;60030;52.274;8.040;2022-07-26T02:50:28;8.52;;;2.47;;
71366;SDS011;60030;52.274;8.040;2022-07-26T02:52:56;9.63;;;2.90;;
71366;SDS011;60030;52.274;8.040;2022-07-26T02:55:24;6.95;;;2.08;;
71366;SDS011;60030;52.274;8.040;2022-07-26T02:57:52;7.32;;;2.50;;
71366;SDS011;60030;52.274;8.040;2022-07-26T03:00:21;8.40;;;1.90;;
71366;SDS011;60030;52.274;8.040;2022-07-26T03:02:50;7.82;;;2.10;;
71366;SDS011;60030;52.274;8.040;2022-07-26T03:05:19;8.85;;;2.33;;
71366;SDS011;60030;52.274;8.040;2022-07-26T03:07:47;5.22;;;1.90;;
71366;SDS011;60030;52.274;8.040;2022-07-26T03:10:14;6.25;;;1.83;;
71366;SDS011;60030;52.274;8.040;2022-07-26T03:12:41;7.05;;;2.47;;
71366;SDS011;60030;52.274;8.040;2022-07-26T03:15:09;8.73;;;1.95;;
71366;SDS011;60030;52.274;8.040;2022-07-26T03:17:37;9.35;;;2.60;;
71366;SDS011;60030;52.274;8.040;2022-07-26T03:20:04;9.02;;;2.47;;
71366;SDS011;60030;52.274;8.040;2022-07-26T03:22:33;5.78;;;2.22;;
71366;SDS011;60030;52.274;8.040;2022-07-26T03:25:01;6.18;;;2.13;;
71366;SDS011;60030;52.274;8.040;2022-07-26T03:27:28;7.57;;;2.22;;
71366;SDS011;60030;52.274;8.040;2022-07-26T03:29:55;6.05;;;2.13;;
71366;SDS011;60030;52.274;8.040;2022-07-26T03:32:22;8.75;;;2.55;;
71366;SDS011;60030;52.274;8.040;2022-07-26T03:34:49;9.57;;;2.42;;
71366;SDS011;60030;52.274;8.040;2022-07-26T03:37:16;7.95;;;2.25;;
71366;SDS011;60030;52.274;8.040;2022-07-26T03:39:45;8.07;;;1.75;;
71366;SDS011;60030;52.274;8.040;2022-07-26T03:42:12;8.57;;;2.10;;
71366;SDS011;60030;52.274;8.040;2022-07-26T03:44:40;8.32;;;2.28;;
71366;SDS011;60030;52.274;8.040;2022-07-26T03:47:07;10.93;;;2.30;;
71366;SDS011;60030;52.274;8.040;2022-07-26T03:49:35;6.57;;;2.30;;
71366;SDS011;60030;52.274;8.040;2022-07-26T03:52:02;7.10;;;2.20;;
71366;SDS011;60030;52.274;8.040;2022-07-26T03:54:29;6.13;;;1.90;;
71366;SDS011;60030;52.274;8.040;2022-07-26T03:56:58;6.95;;;1.88;;
71366;SDS011;60030;52.274;8.040;2022-07-26T03:59:24;9.48;;;2.30;;
71366;SDS011;60030;52.274;8.040;2022-07-26T04:01:51;10.88;;;2.40;;
71366;SDS011;60030;52.274;8.040;2022-07-26T04:04:18;5.57;;;1.77;;
71366;SDS011;60030;52.274;8.040;2022-07-26T04:06:46;6.80;;;2.33;;
71366;SDS011;60030;52.274;8.040;2022-07-26T04:09:13;4.38;;;2.13;;
71366;SDS011;60030;52.274;8.040;2022-07-26T04:11:41;7.43;;;2.28;;
71366;SDS011;60030;52.274;8.040;2022-07-26T04:14:10;6.03;;;1.63;;
71366;SDS011;60030;52.274;8.040;2022-07-26T04:16:37;7.10;;;2.38;;
71366;SDS011;60030;52.274;8.040;2022-07-26T04:19:04;9.32;;;2.38;;
71366;SDS011;60030;52.274;8.040;2022-07-26T04:21:31;7.35;;;2.20;;
71366;SDS011;60030;52.274;8.040;2022-07-26T04:23:59;9.57;;;2.45;;
71366;SDS011;60030;52.274;8.040;2022-07-26T04:26:26;5.97;;;1.90;;
71366;SDS011;60030;52.274;8.040;2022-07-26T04:28:54;7.72;;;2.47;;
71366;SDS011;60030;52.274;8.040;2022-07-26T04:31:23;7.95;;;2.25;;
71366;SDS011;60030;52.274;8.040;2022-07-26T04:33:50;5.63;;;1.80;;
71366;SDS011;60030;52.274;8.040;2022-07-26T04:36:17;8.63;;;2.53;;
71366;SDS011;60030;52.274;8.040;2022-07-26T04:38:44;6.65;;;2.17;;
71366;SDS011;60030;52.274;8.040;2022-07-26T04:41:12;6.13;;;2.20;;
71366;SDS011;60030;52.274;8.040;2022-07-26T04:43:39;8.77;;;2.10;;
71366;SDS011;60030;52.274;8.040;2022-07-26T04:46:06;7.30;;;2.22;;
71366;SDS011;60030;52.274;8.040;2022-07-26T04:48:36;4.22;;;1.58;;
71366;SDS011;60030;52.274;8.040;2022-07-26T04:51:04;9.30;;;2.40;;
71366;SDS011;60030;52.274;8.040;2022-07-26T04:53:31;6.97;;;2.08;;
71366;SDS011;60030;52.274;8.040;2022-07-26T04:55:58;4.43;;;1.95;;
71366;SDS011;60030;52.274;8.040;2022-07-26T04:58:25;4.03;;;2.22;;
71366;SDS011;60030;52.274;8.040;2022-07-26T05:00:52;7.00;;;2.00;;
71366;SDS011;60030;52.274;8.040;2022-07-26T05:03:19;9.77;;;2.40;;
71366;SDS011;60030;52.274;8.040;2022-07-26T05:05:50;7.90;;;2.47;;
71366;SDS011;60030;52.274;8.040;2022-07-26T05:08:18;8.45;;;2.72;;
71366;SDS011;60030;52.274;8.040;2022-07-26T05:10:45;6.20;;;2.30;;
71366;SDS011;60030;52.274;8.040;2022-07-26T05:13:12;8.48;;;2.40;;
71366;SDS011;60030;52.274;8.040;2022-07-26T05:15:39;8.00;;;2.35;;
71366;SDS011;60030;52.274;8.040;2022-07-26T05:18:07;9.73;;;2.65;;
71366;SDS011;60030;52.274;8.040;2022-07-26T05:20:35;6.22;;;2.42;;
71366;SDS011;60030;52.274;8.040;2022-07-26T05:23:04;10.20;;;2.83;;
71366;SDS011;60030;52.274;8.040;2022-07-26T05:25:32;5.97;;;2.50;;
71366;SDS011;60030;52.274;8.040;2022-07-26T05:28:00;5.88;;;2.70;;
71366;SDS011;60030;52.274;8.040;2022-07-26T05:30:27;8.18;;;2.30;;
71366;SDS011;60030;52.274;8.040;2022-07-26T05:32:54;7.18;;;2.63;;
71366;SDS011;60030;52.274;8.040;2022-07-26T05:35:21;8.05;;;2.92;;
71366;SDS011;60030;52.274;8.040;2022-07-26T05:37:48;4.93;;;2.45;;
71366;SDS011;60030;52.274;8.040;2022-07-26T05:40:17;6.88;;;2.67;;
71366;SDS011;60030;52.274;8.040;2022-07-26T05:42:44;9.32;;;2.78;;
71366;SDS011;60030;52.274;8.040;2022-07-26T05:45:11;5.88;;;2.50;;
71366;SDS011;60030;52.274;8.040;2022-07-26T05:47:38;6.63;;;2.70;;
71366;SDS011;60030;52.274;8.040;2022-07-26T05:50:06;9.05;;;3.28;;
71366;SDS011;60030;52.274;8.040;2022-07-26T05:52:33;6.40;;;3.13;;
71366;SDS011;60030;52.274;8.040;2022-07-26T05:55:00;5.22;;;2.78;;
71366;SDS011;60030;52.274;8.040;2022-07-26T05:57:29;10.20;;;2.72;;
71366;SDS011;60030;52.274;8.040;2022-07-26T05:59:56;9.25;;;2.83;;
71366;SDS011;60030;52.274;8.040;2022-07-26T06:02:23;5.90;;;2.67;;
71366;SDS011;60030;52.274;8.040;2022-07-26T06:04:50;11.32;;;3.15;;
71366;SDS011;60030;52.274;8.040;2022-07-26T06:07:17;6.03;;;2.63;;
71366;SDS011;60030;52.274;8.040;2022-07-26T06:09:44;9.43;;;2.65;;
71366;SDS011;60030;52.274;8.040;2022-07-26T06:12:11;11.43;;;2.58;;
71366;SDS011;60030;52.274;8.040;2022-07-26T06:14:40;9.23;;;2.85;;
71366;SDS011;60030;52.274;8.040;2022-07-26T06:17:07;8.57;;;3.35;;
71366;SDS011;60030;52.274;8.040;2022-07-26T06:19:34;7.72;;;2.85;;
71366;SDS011;60030;52.274;8.040;2022-07-26T06:22:01;8.50;;;2.60;;
71366;SDS011;60030;52.274;8.040;2022-07-26T06:24:28;8.10;;;2.55;;
71366;SDS011;60030;52.274;8.040;2022-07-26T06:26:55;8.85;;;2.92;;
71366;SDS011;60030;52.274;8.040;2022-07-26T06:29:23;9.32;;;2.80;;
71366;SDS011;60030;52.274;8.040;2022-07-26T06:31:51;8.88;;;3.03;;
71366;SDS011;60030;52.274;8.040;2022-07-26T06:34:18;7.32;;;3.20;;
71366;SDS011;60030;52.274;8.040;2022-07-26T06:36:45;5.47;;;2.97;;
71366;SDS011;60030;52.274;8.040;2022-07-26T06:39:12;8.95;;;3.25;;
71366;SDS011;60030;52.274;8.040;2022-07-26T06:41:39;13.38;;;3.40;;
71366;SDS011;60030;52.274;8.040;2022-07-26T06:44:06;8.80;;;2.83;;
71366;SDS011;60030;52.274;8.040;2022-07-26T06:46:33;10.70;;;2.90;;
71366;SDS011;60030;52.274;8.040;2022-07-26T06:49:02;5.13;;;2.80;;
71366;SDS011;60030;52.274;8.040;2022-07-26T06:51:29;11.05;;;2.92;;
71366;SDS011;60030;52.274;8.040;2022-07-26T06:53:57;6.03;;;2.65;;
71366;SDS011;60030;52.274;8.040;2022-07-26T06:56:24;7.03;;;2.50;;
71366;SDS011;60030;52.274;8.040;2022-07-26T06:58:51;5.53;;;2.67;;
71366;SDS011;60030;52.274;8.040;2022-07-26T07:01:19;5.13;;;2.45;;
71366;SDS011;60030;52.274;8.040;2022-07-26T07:03:46;7.65;;;2.50;;
71366;SDS011;60030;52.274;8.040;2022-07-26T07:06:15;5.32;;;2.13;;
71366;SDS011;60030;52.274;8.040;2022-07-26T07:08:42;8.18;;;2.35;;
71366;SDS011;60030;52.274;8.040;2022-07-26T07:11:09;6.43;;;2.28;;
71366;SDS011;60030;52.274;8.040;2022-07-26T07:13:36;6.90;;;2.15;;
71366;SDS011;60030;52.274;8.040;2022-07-26T07:16:04;8.80;;;2.30;;
71366;SDS011;60030;52.274;8.040;2022-07-26T07:18:31;6.07;;;2.00;;
71366;SDS011;60030;52.274;8.040;2022-07-26T07:20:58;4.15;;;2.10;;
71366;SDS011;60030;52.274;8.040;2022-07-26T07:23:27;2.08;;;1.25;;
71366;SDS011;60030;52.274;8.040;2022-07-26T07:25:54;3.67;;;1.35;;
71366;SDS011;60030;52.274;8.040;2022-07-26T07:28:21;2.00;;;1.20;;
71366;SDS011;60030;52.274;8.040;2022-07-26T07:30:48;2.97;;;1.35;;
71366;SDS011;60030;52.274;8.040;2022-07-26T07:33:15;4.30;;;1.20;;
71366;SDS011;60030;52.274;8.040;2022-07-26T07:35:42;3.50;;;1.48;;
71366;SDS011;60030;52.274;8.040;2022-07-26T07:38:10;4.13;;;1.25;;
71366;SDS011;60030;52.274;8.040;2022-07-26T07:40:38;2.38;;;1.30;;
71366;SDS011;60030;52.274;8.040;2022-07-26T07:43:05;3.00;;;1.23;;
71366;SDS011;60030;52.274;8.040;2022-07-26T07:45:32;2.90;;;1.20;;
71366;SDS011;60030;52.274;8.040;2022-07-26T07:47:59;3.55;;;0.90;;
71366;SDS011;60030;52.274;8.040;2022-07-26T07:50:27;1.90;;;1.05;;
71366;SDS011;60030;52.274;8.040;2022-07-26T07:52:54;3.20;;;1.27;;
71366;SDS011;60030;52.274;8.040;2022-07-26T07:55:21;1.63;;;0.90;;
71366;SDS011;60030;52.274;8.040;2022-07-26T07:57:49;2.35;;;1.10;;
71366;SDS011;60030;52.274;8.040;2022-07-26T08:00:17;3.53;;;1.30;;
71366;SDS011;60030;52.274;8.040;2022-07-26T08:02:45;2.30;;;1.05;;
71366;SDS011;60030;52.274;8.040;2022-07-26T08:05:12;3.35;;;1.27;;
71366;SDS011;60030;52.274;8.040;2022-07-26T08:07:39;2.22;;;1.05;;
71366;SDS011;60030;52.274;8.040;2022-07-26T08:10:07;3.45;;;1.38;;
71366;SDS011;60030;52.274;8.040;2022-07-26T08:12:34;4.93;;;1.30;;
71366;SDS011;60030;52.274;8.040;2022-07-26T08:15:03;2.30;;;1.10;;
71366;SDS011;60030;52.274;8.040;2022-07-26T08:17:31;2.08;;;1.10;;
71366;SDS011;60030;52.274;8.040;2022-07-26T08:19:59;2.25;;;1.27;;
71366;SDS011;60030;52.274;8.040;2022-07-26T08:22:26;2.97;;;1.08;;
71366;SDS011;60030;52.274;8.040;2022-07-26T08:24:53;3.63;;;1.42;;
71366;SDS011;60030;52.274;8.040;2022-07-26T08:27:20;2.53;;;1.10;;
71366;SDS011;60030;52.274;8.040;2022-07-26T08:29:47;4.55;;;1.30;;
71366;SDS011;60030;52.274;8.040;2022-07-26T08:32:16;2.45;;;1.23;;
71366;SDS011;60030;52.274;8.040;2022-07-26T08:34:43;2.47;;;1.50;;
71366;SDS011;60030;52.274;8.040;2022-07-26T08:37:10;2.35;;;1.08;;
71366;SDS011;60030;52.274;8.040;2022-07-26T08:39:37;2.30;;;1.23;;
71366;SDS011;60030;52.274;8.040;2022-07-26T08:42:11;3.88;;;1.15;;
71366;SDS011;60030;52.274;8.040;2022-07-26T08:44:40;6.90;;;1.25;;
71366;SDS011;60030;52.274;8.040;2022-07-26T08:47:09;2.20;;;1.00;;
71366;SDS011;60030;52.274;8.040;2022-07-26T08:49:38;2.22;;;1.10;;
71366;SDS011;60030;52.274;8.040;2022-07-26T08:52:05;3.92;;;1.00;;
71366;SDS011;60030;52.274;8.040;2022-07-26T08:54:33;2.45;;;1.00;;
71366;SDS011;60030;52.274;8.040;2022-07-26T08:57:00;2.45;;;1.17;;
71366;SDS011;60030;52.274;8.040;2022-07-26T08:59:27;2.00;;;1.10;;
71366;SDS011;60030;52.274;8.040;2022-07-26T09:01:56;3.70;;;1.15;;
71366;SDS011;60030;52.274;8.040;2022-07-26T09:04:25;1.70;;;0.80;;
71366;SDS011;60030;52.274;8.040;2022-07-26T09:06:57;2.85;;;1.00;;
71366;SDS011;60030;52.274;8.040;2022-07-26T09:09:25;3.08;;;0.90;;
71366;SDS011;60030;52.274;8.040;2022-07-26T09:11:53;4.05;;;0.88;;
71366;SDS011;60030;52.274;8.040;2022-07-26T09:14:21;4.40;;;0.77;;
71366;SDS011;60030;52.274;8.040;2022-07-26T09:16:55;1.88;;;0.77;;
71366;SDS011;60030;52.274;8.040;2022-07-26T09:19:23;1.00;;;0.50;;
71366;SDS011;60030;52.274;8.040;2022-07-26T09:21:52;1.13;;;0.82;;
71366;SDS011;60030;52.274;8.040;2022-07-26T09:24:33;1.95;;;0.75;;
71366;SDS011;60030;52.274;8.040;2022-07-26T09:27:02;1.50;;;0.60;;
71366;SDS011;60030;52.274;8.040;2022-07-26T09:29:40;1.13;;;0.57;;
71366;SDS011;60030;52.274;8.040;2022-07-26T09:32:09;1.23;;;0.57;;
71366;SDS011;60030;52.274;8.040;2022-07-26T09:34:41;1.35;;;0.50;;
71366;SDS011;60030;52.274;8.040;2022-07-26T09:37:09;2.35;;;0.50;;
71366;SDS011;60030;52.274;8.040;2022-07-26T09:39:54;2.22;;;0.65;;
71366;SDS011;60030;52.274;8.040;2022-07-26T09:42:22;2.33;;;0.80;;
71366;SDS011;60030;52.274;8.040;2022-07-26T09:44:50;2.10;;;0.93;;
71366;SDS011;60030;52.274;8.040;2022-07-26T09:47:18;0.68;;;0.50;;
71366;SDS011;60030;52.274;8.040;2022-07-26T09:49:45;1.95;;;0.50;;
71366;SDS011;60030;52.274;8.040;2022-07-26T09:52:13;2.20;;;0.73;;
71366;SDS011;60030;52.274;8.040;2022-07-26T09:54:42;0.65;;;0.47;;
71366;SDS011;60030;52.274;8.040;2022-07-26T09:57:15;1.30;;;0.68;;
71366;SDS011;60030;52.274;8.040;2022-07-26T09:59:43;3.50;;;0.60;;
71366;SDS011;60030;52.274;8.040;2022-07-26T10:02:11;1.98;;;0.88;;
71366;SDS011;60030;52.274;8.040;2022-07-26T10:04:39;0.98;;;0.70;;
71366;SDS011;60030;52.274;8.040;2022-07-26T10:07:07;2.53;;;0.77;;
71366;SDS011;60030;52.274;8.040;2022-07-26T10:09:36;0.82;;;0.70;;
71366;SDS011;60030;52.274;8.040;2022-07-26T10:12:08;0.80;;;0.50;;
71366;SDS011;60030;52.274;8.040;2022-07-26T10:14:42;1.95;;;0.60;;
71366;SDS011;60030;52.274;8.040;2022-07-26T10:26:09;0.73;;;0.40;;
71366;SDS011;60030;52.274;8.040;2022-07-26T10:31:46;1.58;;;0.50;;
71366;SDS011;60030;52.274;8.040;2022-07-26T10:34:28;0.60;;;0.40;;
71366;SDS011;60030;52.274;8.040;2022-07-26T10:36:57;1.95;;;0.60;;
71366;SDS011;60030;52.274;8.040;2022-07-26T10:39:25;1.65;;;0.68;;
71366;SDS011;60030;52.274;8.040;2022-07-26T10:41:56;0.77;;;0.50;;
71366;SDS011;60030;52.274;8.040;2022-07-26T10:44:25;0.95;;;0.55;;
71366;SDS011;60030;52.274;8.040;2022-07-26T10:46:58;3.65;;;0.70;;
71366;SDS011;60030;52.274;8.040;2022-07-26T10:49:28;3.70;;;0.55;;
71366;SDS011;60030;52.274;8.040;2022-07-26T10:52:03;2.03;;;0.60;;
71366;SDS011;60030;52.274;8.040;2022-07-26T10:54:34;0.93;;;0.60;;
71366;SDS011;60030;52.274;8.040;2022-07-26T10:57:31;2.70;;;0.80;;
71366;SDS011;60030;52.274;8.040;2022-07-26T11:00:00;3.10;;;1.00;;
71366;SDS011;60030;52.274;8.040;2022-07-26T11:02:33;3.97;;;0.90;;
71366;SDS011;60030;52.274;8.040;2022-07-26T11:05:01;1.85;;;0.85;;
71366;SDS011;60030;52.274;8.040;2022-07-26T11:07:30;1.67;;;0.73;;
71366;SDS011;60030;52.274;8.040;2022-07-26T11:09:58;1.67;;;1.00;;
71366;SDS011;60030;52.274;8.040;2022-07-26T11:12:26;2.08;;;0.80;;
71366;SDS011;60030;52.274;8.040;2022-07-26T11:14:53;2.42;;;0.60;;
71366;SDS011;60030;52.274;8.040;2022-07-26T11:17:23;1.27;;;0.70;;
71366;SDS011;60030;52.274;8.040;2022-07-26T11:19:53;3.53;;;0.80;;
71366;SDS011;60030;52.274;8.040;2022-07-26T11:22:20;1.05;;;0.60;;
71366;SDS011;60030;52.274;8.040;2022-07-26T11:24:56;2.65;;;0.60;;
71366;SDS011;60030;52.274;8.040;2022-07-26T11:27:23;2.85;;;0.80;;
71366;SDS011;60030;52.274;8.040;2022-07-26T11:29:50;1.30;;;0.50;;
71366;SDS011;60030;52.274;8.040;2022-07-26T11:32:18;3.28;;;0.90;;
71366;SDS011;60030;52.274;8.040;2022-07-26T11:34:46;0.95;;;0.60;;
71366;SDS011;60030;52.274;8.040;2022-07-26T11:37:25;2.20;;;0.55;;
71366;SDS011;60030;52.274;8.040;2022-07-26T11:39:52;0.88;;;0.43;;
71366;SDS011;60030;52.274;8.040;2022-07-26T11:42:19;2.83;;;0.68;;
71366;SDS011;60030;52.274;8.040;2022-07-26T11:44:47;2.60;;;0.80;;
71366;SDS011;60030;52.274;8.040;2022-07-26T11:47:15;1.38;;;0.50;;
71366;SDS011;60030;52.274;8.040;2022-07-26T11:49:44;1.95;;;0.57;;
71366;SDS011;60030;52.274;8.040;2022-07-26T11:52:13;2.88;;;0.73;;
71366;SDS011;60030;52.274;8.040;2022-07-26T11:54:44;1.30;;;0.68;;
71366;SDS011;60030;52.274;8.040;2022-07-26T11:57:13;2.80;;;1.17;;
71366;SDS011;60030;52.274;8.040;2022-07-26T11:59:43;1.85;;;0.60;;
71366;SDS011;60030;52.274;8.040;2022-07-26T12:02:12;1.73;;;0.52;;
71366;SDS011;60030;52.274;8.040;2022-07-26T12:04:40;1.02;;;0.52;;
71366;SDS011;60030;52.274;8.040;2022-07-26T12:07:09;0.85;;;0.50;;
71366;SDS011;60030;52.274;8.040;2022-07-26T12:09:39;3.08;;;0.57;;
71366;SDS011;60030;52.274;8.040;2022-07-26T12:12:08;1.80;;;0.60;;
71366;SDS011;60030;52.274;8.040;2022-07-26T12:14:37;0.93;;;0.52;;
71366;SDS011;60030;52.274;8.040;2022-07-26T12:17:12;1.98;;;0.70;;
71366;SDS011;60030;52.274;8.040;2022-07-26T12:19:39;2.53;;;1.00;;
71366;SDS011;60030;52.274;8.040;2022-07-26T12:22:07;1.67;;;0.88;;
71366;SDS011;60030;52.274;8.040;2022-07-26T12:24:37;1.92;;;1.00;;
71366;SDS011;60030;52.274;8.040;2022-07-26T12:27:09;2.90;;;0.90;;
71366;SDS011;60030;52.274;8.040;2022-07-26T12:29:39;2.72;;;0.82;;
71366;SDS011;60030;52.274;8.040;2022-07-26T12:32:09;4.85;;;1.40;;
71366;SDS011;60030;52.274;8.040;2022-07-26T12:34:39;4.68;;;1.58;;
71366;SDS011;60030;52.274;8.040;2022-07-26T12:37:11;3.58;;;1.63;;
71366;SDS011;60030;52.274;8.040;2022-07-26T12:39:41;4.32;;;0.98;;
71366;SDS011;60030;52.274;8.040;2022-07-26T12:42:26;3.75;;;0.90;;
71366;SDS011;60030;52.274;8.040;2022-07-26T12:44:55;1.55;;;0.82;;
71366;SDS011;60030;52.274;8.040;2022-07-26T12:47:23;3.67;;;1.38;;
71366;SDS011;60030;52.274;8.040;2022-07-26T12:49:51;3.30;;;1.30;;
71366;SDS011;60030;52.274;8.040;2022-07-26T12:52:19;4.90;;;1.38;;
71366;SDS011;60030;52.274;8.040;2022-07-26T12:54:49;3.80;;;1.05;;
71366;SDS011;60030;52.274;8.040;2022-07-26T12:57:17;3.50;;;0.82;;
71366;SDS011;60030;52.274;8.040;2022-07-26T12:59:45;2.20;;;0.70;;
71366;SDS011;60030;52.274;8.040;2022-07-26T13:02:13;2.15;;;0.70;;
71366;SDS011;60030;52.274;8.040;2022-07-26T13:04:41;2.90;;;1.10;;
71366;SDS011;60030;52.274;8.040;2022-07-26T13:07:09;1.92;;;0.80;;
71366;SDS011;60030;52.274;8.040;2022-07-26T13:09:36;2.30;;;0.75;;
71366;SDS011;60030;52.274;8.040;2022-07-26T13:12:05;4.25;;;0.80;;
71366;SDS011;60030;52.274;8.040;2022-07-26T13:14:34;1.40;;;0.75;;
71366;SDS011;60030;52.274;8.040;2022-07-26T13:17:03;2.78;;;0.50;;
71366;SDS011;60030;52.274;8.040;2022-07-26T13:19:31;2.40;;;0.47;;
71366;SDS011;60030;52.274;8.040;2022-07-26T13:21:59;1.48;;;0.70;;
71366;SDS011;60030;52.274;8.040;2022-07-26T13:24:28;2.17;;;0.50;;
71366;SDS011;60030;52.274;8.040;2022-07-26T13:26:56;1.95;;;0.68;;
71366;SDS011;60030;52.274;8.040;2022-07-26T13:29:25;3.03;;;0.80;;
71366;SDS011;60030;52.274;8.040;2022-07-26T13:31:53;4.72;;;0.80;;
71366;SDS011;60030;52.274;8.040;2022-07-26T13:34:21;1.58;;;0.60;;
71366;SDS011;60030;52.274;8.040;2022-07-26T13:36:48;2.78;;;0.60;;
71366;SDS011;60030;52.274;8.040;2022-07-26T13:39:16;2.97;;;0.77;;
71366;SDS011;60030;52.274;8.040;2022-07-26T13:41:43;3.00;;;1.00;;
71366;SDS011;60030;52.274;8.040;2022-07-26T13:44:11;6.47;;;1.02;;
71366;SDS011;60030;52.274;8.040;2022-07-26T13:46:39;2.78;;;1.10;;
71366;SDS011;60030;52.274;8.040;2022-07-26T13:49:06;6.53;;;1.30;;
71366;SDS011;60030;52.274;8.040;2022-07-26T13:51:34;2.15;;;1.02;;
71366;SDS011;60030;52.274;8.040;2022-07-26T13:54:21;4.80;;;1.23;;
71366;SDS011;60030;52.274;8.040;2022-07-26T13:56:49;6.05;;;1.27;;
71366;SDS011;60030;52.274;8.040;2022-07-26T13:59:16;3.95;;;0.90;;
71366;SDS011;60030;52.274;8.040;2022-07-26T14:01:45;2.65;;;0.90;;
71366;SDS011;60030;52.274;8.040;2022-07-26T14:04:12;2.80;;;0.80;;
71366;SDS011;60030;52.274;8.040;2022-07-26T14:06:40;2.80;;;0.90;;
71366;SDS011;60030;52.274;8.040;2022-07-26T14:09:07;5.68;;;1.13;;
71366;SDS011;60030;52.274;8.040;2022-07-26T14:11:34;3.80;;;0.80;;
71366;SDS011;60030;52.274;8.040;2022-07-26T14:14:02;3.22;;;1.00;;
71366;SDS011;60030;52.274;8.040;2022-07-26T14:16:29;4.25;;;1.13;;
71366;SDS011;60030;52.274;8.040;2022-07-26T14:18:58;3.10;;;0.90;;
71366;SDS011;60030;52.274;8.040;2022-07-26T14:21:26;4.35;;;1.05;;
71366;SDS011;60030;52.274;8.040;2022-07-26T14:23:54;2.42;;;0.80;;
71366;SDS011;60030;52.274;8.040;2022-07-26T14:26:22;5.80;;;1.00;;
71366;SDS011;60030;52.274;8.040;2022-07-26T14:28:50;2.25;;;0.93;;
71366;SDS011;60030;52.274;8.040;2022-07-26T14:31:18;3.25;;;1.63;;
71366;SDS011;60030;52.274;8.040;2022-07-26T14:33:45;7.75;;;1.35;;
71366;SDS011;60030;52.274;8.040;2022-07-26T14:36:14;4.03;;;1.25;;
71366;SDS011;60030;52.274;8.040;2022-07-26T14:38:41;4.07;;;1.10;;
71366;SDS011;60030;52.274;8.040;2022-07-26T14:41:09;3.75;;;1.00;;
71366;SDS011;60030;52.274;8.040;2022-07-26T14:43:37;1.85;;;0.90;;
71366;SDS011;60030;52.274;8.040;2022-07-26T14:46:06;4.32;;;1.00;;
71366;SDS011;60030;52.274;8.040;2022-07-26T14:48:33;1.70;;;0.90;;
71366;SDS011;60030;52.274;8.040;2022-07-26T14:51:01;5.93;;;1.20;;
71366;SDS011;60030;52.274;8.040;2022-07-26T14:53:29;2.25;;;0.90;;
71366;SDS011;60030;52.274;8.040;2022-07-26T14:55:57;4.78;;;1.10;;
71366;SDS011;60030;52.274;8.040;2022-07-26T14:58:24;2.22;;;0.80;;
71366;SDS011;60030;52.274;8.040;2022-07-26T15:00:51;1.98;;;0.98;;
71366;SDS011;60030;52.274;8.040;2022-07-26T15:03:18;4.90;;;1.30;;
71366;SDS011;60030;52.274;8.040;2022-07-26T15:05:46;5.18;;;2.00;;